Time;durP1;ratioP1;P1;durP2;ratioP2;P2;SDS_P1;SDS_P2;PMS_P1;PMS_P2;Temp;Humidity;BMP_temperature;BMP_pressure;BME280_temperature;BME280_humidity;BME280_pressure;Samples;Min_cycle;Max_cycle;Signal;HPM_P1;HPM_P2
2022/10/26 00:01:07;;;;;;;18.52;10.15;;;;;;;11.41;83.62;98937.48;1706730;84;25646;-69
2022/10/26 00:03:34;;;;;;;12.75;8.28;;;;;;;11.41;83.70;98934.19;1706875;84;25512;-69
2022/10/26 00:06:14;;;;;;;14.83;8.68;;;;;;;11.36;83.67;98930.19;1706770;84;25896;-69
2022/10/26 00:08:40;;;;;;;17.85;10.32;;;;;;;11.34;83.87;98932.42;1706746;84;25446;-68
2022/10/26 00:11:08;;;;;;;14.58;9.00;;;;;;;11.33;83.97;98927.24;1706843;84;28271;-68
2022/10/26 00:13:36;;;;;;;30.05;14.07;;;;;;;11.34;83.92;98927.52;1706475;84;25442;-69
2022/10/26 00:16:13;;;;;;;23.80;14.03;;;;;;;11.33;84.06;98923.95;1706835;84;25480;-69
2022/10/26 00:18:40;;;;;;;37.50;19.37;;;;;;;11.33;84.01;98926.69;1706709;84;25723;-68
2022/10/26 00:21:09;;;;;;;24.45;12.18;;;;;;;11.33;83.93;98933.55;1706423;84;25430;-68
2022/10/26 00:23:36;;;;;;;14.05;8.68;;;;;;;11.36;84.09;98937.59;1706564;83;27504;-68
2022/10/26 00:26:03;;;;;;;14.65;9.03;;;;;;;11.44;84.15;98934.66;1706357;84;25642;-69
2022/10/26 00:28:30;;;;;;;17.02;9.25;;;;;;;11.49;83.93;98931.22;1706434;84;25496;-68
2022/10/26 00:31:03;;;;;;;26.17;16.65;;;;;;;11.53;83.89;98921.27;1706431;84;25783;-69
2022/10/26 00:33:30;;;;;;;14.47;9.43;;;;;;;11.53;83.72;98930.05;1706844;84;25615;-69
2022/10/26 00:35:56;;;;;;;12.75;8.13;;;;;;;11.54;83.88;98931.11;1706396;84;27275;-69
2022/10/26 00:38:23;;;;;;;19.25;11.33;;;;;;;11.53;84.01;98941.84;1706615;84;25686;-68
2022/10/26 00:40:50;;;;;;;24.43;15.53;;;;;;;11.52;84.01;98942.16;1706471;84;25449;-68
2022/10/26 00:43:28;;;;;;;21.97;12.78;;;;;;;11.46;84.07;98942.86;1706780;84;25747;-69
2022/10/26 00:45:57;;;;;;;29.45;16.73;;;;;;;11.42;83.98;98941.28;1706923;84;25576;-68
2022/10/26 00:48:33;;;;;;;24.72;14.45;;;;;;;11.39;84.12;98936.42;1706416;84;26790;-68
2022/10/26 00:51:05;;;;;;;21.02;13.15;;;;;;;11.39;84.05;98935.60;1706648;84;25610;-68
2022/10/26 00:53:32;;;;;;;15.20;9.90;;;;;;;11.39;83.96;98933.67;1706830;84;25698;-69
2022/10/26 00:55:58;;;;;;;14.05;9.43;;;;;;;11.39;84.02;98935.60;1706689;84;25674;-68
2022/10/26 00:58:25;;;;;;;13.22;9.05;;;;;;;11.41;84.17;98931.45;1706568;84;25604;-69
2022/10/26 01:00:51;;;;;;;39.40;18.20;;;;;;;11.45;84.10;98932.98;1706810;84;27374;-69
2022/10/26 01:03:18;;;;;;;36.80;17.92;;;;;;;11.49;84.11;98938.66;1706674;84;25496;-68
2022/10/26 01:05:47;;;;;;;43.42;20.27;;;;;;;11.50;84.31;98934.23;1706372;84;25635;-68
2022/10/26 01:08:15;;;;;;;25.95;13.00;;;;;;;11.53;84.26;98926.75;1706390;84;25718;-69
2022/10/26 01:10:42;;;;;;;19.67;10.43;;;;;;;11.50;84.05;98931.49;1706616;84;25567;-69
2022/10/26 01:13:10;;;;;;;31.80;15.45;;;;;;;11.45;84.32;98934.35;1706521;84;27539;-68
2022/10/26 01:16:05;;;;;;;50.50;23.35;;;;;;;11.45;84.24;98923.38;1706609;84;25488;-68
2022/10/26 01:19:06;;;;;;;65.15;28.75;;;;;;;11.45;84.14;98934.35;1706104;84;25440;-68
2022/10/26 01:21:53;;;;;;;31.95;16.15;;;;;;;11.44;84.21;98929.17;1706674;84;25728;-68
2022/10/26 01:24:48;;;;;;;42.98;18.62;;;;;;;11.42;84.27;98923.45;1706466;84;25493;-68
2022/10/26 01:27:34;;;;;;;27.48;12.80;;;;;;;11.41;84.13;98931.99;1682107;85;27597;-68
2022/10/26 01:30:35;;;;;;;19.73;10.00;;;;;;;11.35;83.88;98934.61;1681680;85;26000;-68
2022/10/26 01:33:34;;;;;;;11.63;7.03;;;;;;;11.29;83.75;98933.36;1681921;85;35160;-68
2022/10/26 01:36:18;;;;;;;41.98;18.50;;;;;;;11.22;84.12;98927.50;1682120;85;25775;-69
2022/10/26 01:39:07;;;;;;;26.50;13.98;;;;;;;11.18;84.09;98930.62;1682297;85;25338;-68
2022/10/26 01:41:45;;;;;;;20.32;10.72;;;;;;;11.15;84.29;98932.62;1684003;84;27425;-69
2022/10/26 01:44:48;;;;;;;13.65;8.15;;;;;;;11.08;85.27;98933.03;1683752;85;25893;-68
2022/10/26 01:47:17;;;;;;;12.18;6.60;;;;;;;11.03;85.18;98921.63;1683314;85;25833;-67
2022/10/26 01:49:52;;;;;;;12.03;6.75;;;;;;;11.03;85.82;98922.20;1684202;85;25706;-68
2022/10/26 01:52:21;;;;;;;14.80;7.20;;;;;;;11.04;85.71;98918.33;1684284;85;25745;-68
2022/10/26 01:54:48;;;;;;;11.40;5.87;;;;;;;11.05;85.69;98917.20;1684196;85;28340;-67
2022/10/26 01:57:19;;;;;;;11.85;6.53;;;;;;;11.07;85.82;98919.08;1683761;85;25545;-68
2022/10/26 02:00:08;;;;;;;20.62;10.32;;;;;;;11.09;85.70;98916.03;1684280;85;25704;-68
2022/10/26 02:03:08;;;;;;;14.18;7.70;;;;;;;11.09;85.57;98920.14;1683997;85;25945;-68
2022/10/26 02:06:01;;;;;;;13.10;6.97;;;;;;;11.02;85.29;98923.30;1679494;85;25729;-68
2022/10/26 02:08:45;;;;;;;10.08;7.20;;;;;;;11.03;85.49;98931.22;1681780;85;27498;-68
2022/10/26 02:11:33;;;;;;;9.65;6.40;;;;;;;11.09;85.27;98928.38;1681817;85;25742;-68
2022/10/26 02:14:35;;;;;;;20.50;11.03;;;;;;;11.08;85.18;98928.92;1681266;85;25547;-68
2022/10/26 02:17:04;;;;;;;;;;;;;;;11.04;84.90;98926.56;1683920;85;25740;-68
2022/10/26 02:19:52;;;;;;;9.55;7.00;;;;;;;10.95;85.14;98929.78;1668479;85;25699;-68
2022/10/26 02:22:27;;;;;;;17.17;10.65;;;;;;;10.88;85.26;98928.27;1666348;84;27484;-67
2022/10/26 02:24:55;;;;;;;22.73;12.98;;;;;;;10.82;85.05;98925.39;1663921;84;26122;-68
2022/10/26 02:27:29;;;;;;;13.75;8.28;;;;;;;10.75;84.98;98931.88;1667369;86;25504;-67
2022/10/26 02:29:58;;;;;;;14.53;8.80;;;;;;;10.74;85.08;98931.05;1668453;85;25685;-68
2022/10/26 02:32:28;;;;;;;14.38;10.35;;;;;;;10.75;85.18;98926.39;1667044;85;25744;-67
2022/10/26 02:34:58;;;;;;;13.40;6.95;;;;;;;10.75;84.99;98932.69;1670024;85;27540;-68
2022/10/26 02:37:27;;;;;;;9.18;5.90;;;;;;;10.73;85.05;98922.58;1668055;85;26189;-67
2022/10/26 02:39:57;;;;;;;10.50;6.12;;;;;;;10.71;85.12;98927.55;1667781;85;25507;-67
2022/10/26 02:42:26;;;;;;;10.57;7.43;;;;;;;10.70;85.17;98927.31;1674519;85;25694;-68
2022/10/26 02:45:06;;;;;;;12.43;7.72;;;;;;;10.66;84.96;98926.31;1667161;85;25614;-68
2022/10/26 02:47:33;;;;;;;14.73;7.12;;;;;;;10.69;84.94;98926.25;1674874;85;27419;-69
2022/10/26 02:49:59;;;;;;;10.88;6.83;;;;;;;10.67;84.93;98927.92;1680101;85;25756;-68
2022/10/26 02:52:57;;;;;;;10.35;6.20;;;;;;;10.59;84.51;98926.72;1690189;83;25774;-68
2022/10/26 02:55:27;;;;;;;10.65;6.83;;;;;;;10.56;84.79;98928.70;1683461;84;25719;-68
2022/10/26 02:57:58;;;;;;;10.20;6.65;;;;;;;10.49;84.36;98930.50;1681822;85;25767;-67
2022/10/26 03:00:24;;;;;;;11.70;6.53;;;;;;;10.41;84.48;98932.55;1682090;85;27371;-67
2022/10/26 03:02:56;;;;;;;13.93;7.40;;;;;;;10.32;84.71;98928.90;1681295;85;25745;-67
2022/10/26 03:05:27;;;;;;;11.48;7.17;;;;;;;10.26;84.62;98925.46;1681616;85;25852;-67
2022/10/26 03:07:56;;;;;;;11.03;7.35;;;;;;;10.14;84.37;98930.09;1681040;85;26692;-67
2022/10/26 03:10:22;;;;;;;12.43;7.17;;;;;;;10.11;85.27;98923.84;1682338;85;25738;-67
2022/10/26 03:12:48;;;;;;;12.73;6.92;;;;;;;10.08;85.14;98927.19;1681983;85;27442;-67
2022/10/26 03:15:15;;;;;;;9.90;7.00;;;;;;;9.94;85.06;98926.63;1681457;85;25670;-67
2022/10/26 03:17:41;;;;;;;10.80;6.78;;;;;;;9.89;85.22;98941.22;1681517;85;25723;-67
2022/10/26 03:20:10;;;;;;;9.78;6.83;;;;;;;9.91;85.35;98942.29;1681951;85;25900;-67
2022/10/26 03:22:36;;;;;;;12.75;7.42;;;;;;;9.94;84.93;98938.12;1682603;84;25481;-67
2022/10/26 03:25:03;;;;;;;10.78;6.85;;;;;;;9.94;84.94;98940.87;1679646;85;27470;-67
2022/10/26 03:27:30;;;;;;;13.35;8.20;;;;;;;9.90;85.02;98945.58;1679199;85;25761;-67
2022/10/26 03:29:56;;;;;;;13.60;7.00;;;;;;;9.85;85.04;98945.69;1679447;85;25713;-67
2022/10/26 03:32:23;;;;;;;7.53;4.53;;;;;;;9.80;86.04;98941.66;1694827;83;25832;-68
2022/10/26 03:34:49;;;;;;;11.63;5.95;;;;;;;9.78;88.15;98932.38;1704440;83;25714;-67
2022/10/26 03:37:15;;;;;;;9.48;6.03;;;;;;;9.82;88.07;98937.25;1704666;84;27651;-68
2022/10/26 03:39:41;;;;;;;11.65;5.37;;;;;;;9.84;88.42;98936.41;1704688;84;25901;-67
2022/10/26 03:42:07;;;;;;;9.05;5.17;;;;;;;9.88;88.79;98934.11;1704710;84;25449;-67
2022/10/26 03:44:33;;;;;;;11.68;6.15;;;;;;;9.92;89.73;98934.32;1704304;84;25726;-67
2022/10/26 03:47:00;;;;;;;10.38;5.55;;;;;;;9.99;89.08;98936.09;1704669;84;25643;-67
2022/10/26 03:49:26;;;;;;;10.53;5.60;;;;;;;10.02;89.20;98931.96;1704509;83;28209;-64
2022/10/26 03:51:52;;;;;;;9.23;5.45;;;;;;;10.08;89.06;98928.56;1704516;83;25489;-64
2022/10/26 03:54:18;;;;;;;11.68;6.10;;;;;;;10.11;88.91;98939.73;1704637;83;25788;-65
2022/10/26 03:56:44;;;;;;;9.90;6.20;;;;;;;10.16;88.77;98951.11;1704364;84;26775;-64
2022/10/26 03:59:10;;;;;;;13.38;6.60;;;;;;;10.19;88.20;98955.98;1704583;84;25485;-65
2022/10/26 04:01:36;;;;;;;9.10;6.30;;;;;;;10.19;88.04;98953.24;1704580;83;27423;-64
2022/10/26 04:04:02;;;;;;;14.58;6.87;;;;;;;10.16;87.79;98954.67;1704380;84;25891;-67
2022/10/26 04:06:29;;;;;;;13.25;6.58;;;;;;;10.15;87.85;98950.32;1704738;83;25273;-67
2022/10/26 04:09:01;;;;;;;10.28;6.62;;;;;;;10.11;87.41;98959.44;1704497;84;25910;-67
2022/10/26 04:11:23;;;;;;;12.93;7.78;;;;;;;9.97;86.50;98956.14;1704251;83;25658;-67
2022/10/26 04:13:49;;;;;;;15.13;7.70;;;;;;;9.80;86.59;98958.09;1704597;83;27531;-67
2022/10/26 04:16:16;;;;;;;18.32;11.78;;;;;;;9.75;87.08;98955.42;1704233;84;25449;-67
2022/10/26 04:18:42;;;;;;;15.23;11.12;;;;;;;9.73;86.96;98963.14;1704473;84;25666;-67
2022/10/26 04:21:08;;;;;;;19.32;11.60;;;;;;;9.70;86.65;98960.43;1704636;83;25787;-67
2022/10/26 04:23:40;;;;;;;17.12;9.70;;;;;;;9.64;86.32;98958.89;1705244;83;25512;-66
2022/10/26 04:26:06;;;;;;;14.13;9.30;;;;;;;9.61;86.38;98958.95;1706072;84;25903;-66
2022/10/26 04:28:32;;;;;;;12.28;7.40;;;;;;;9.62;87.13;98963.30;1706644;84;25731;-67
2022/10/26 04:30:58;;;;;;;13.78;8.20;;;;;;;9.62;87.12;98966.61;1706470;84;25690;-67
2022/10/26 04:33:25;;;;;;;13.83;8.70;;;;;;;9.63;87.05;98966.31;1706071;84;25749;-67
2022/10/26 04:35:51;;;;;;;17.92;9.65;;;;;;;9.58;86.61;98969.12;1706798;84;25617;-67
2022/10/26 04:38:17;;;;;;;16.50;10.58;;;;;;;9.57;87.23;98955.73;1706429;84;27417;-67
2022/10/26 04:40:43;;;;;;;18.98;11.03;;;;;;;9.58;87.09;98961.48;1706114;84;25717;-67
2022/10/26 04:43:09;;;;;;;20.20;10.93;;;;;;;9.56;87.32;98956.31;1702347;84;26504;-67
2022/10/26 04:45:35;;;;;;;18.77;10.95;;;;;;;9.50;87.01;98953.41;1690402;84;25928;-67
2022/10/26 04:48:09;;;;;;;18.17;12.18;;;;;;;9.41;87.18;98961.45;1678148;84;25694;-67
2022/10/26 04:50:36;;;;;;;15.63;10.85;;;;;;;9.34;87.07;98952.83;1697623;84;27442;-66
2022/10/26 04:53:04;;;;;;;16.80;10.80;;;;;;;9.27;86.82;98967.69;1698041;84;25464;-67
2022/10/26 04:55:30;;;;;;;17.50;10.90;;;;;;;9.16;86.29;98960.20;1698830;84;25542;-67
2022/10/26 04:57:56;;;;;;;15.25;10.93;;;;;;;9.02;86.21;98965.63;1697889;84;26551;-67
2022/10/26 05:00:23;;;;;;;17.52;10.50;;;;;;;8.93;86.42;98956.45;1702633;83;25744;-67
2022/10/26 05:02:49;;;;;;;15.68;10.95;;;;;;;8.89;86.60;98962.23;1712899;83;27290;-67
2022/10/26 05:05:15;;;;;;;15.50;10.25;;;;;;;8.83;86.59;98960.67;1712668;83;25680;-67
2022/10/26 05:07:42;;;;;;;18.32;11.05;;;;;;;8.70;86.83;98963.05;1712755;83;25668;-67
2022/10/26 05:10:09;;;;;;;18.60;10.25;;;;;;;8.62;86.94;98956.33;1712651;83;25758;-67
2022/10/26 05:12:36;;;;;;;18.67;11.35;;;;;;;8.64;87.26;98953.30;1712953;83;25699;-67
2022/10/26 05:15:03;;;;;;;18.77;11.05;;;;;;;8.64;87.31;98956.83;1712611;83;27601;-67
2022/10/26 05:17:28;;;;;;;19.55;10.98;;;;;;;8.64;87.23;98954.66;1712156;83;25637;-67
2022/10/26 05:19:57;;;;;;;20.27;11.45;;;;;;;8.64;86.91;98949.99;1712696;83;36394;-66
2022/10/26 05:22:26;;;;;;;20.52;10.98;;;;;;;8.66;87.12;98950.52;1712754;83;26495;-67
2022/10/26 05:24:52;;;;;;;24.95;11.60;;;;;;;8.68;87.04;98954.33;1740637;82;25451;-66
2022/10/26 05:27:19;;;;;;;16.65;11.10;;;;;;;8.69;87.06;98955.15;1745548;82;27685;-66
2022/10/26 05:29:45;;;;;;;16.05;11.43;;;;;;;8.64;86.38;98956.83;1746271;82;25420;-67
2022/10/26 05:32:12;;;;;;;18.42;11.12;;;;;;;8.57;86.59;98970.03;1746150;82;25518;-67
2022/10/26 05:34:38;;;;;;;22.27;12.13;;;;;;;8.53;86.70;98965.67;1746561;82;25913;-67
2022/10/26 05:37:04;;;;;;;17.73;11.90;;;;;;;8.57;87.17;98969.21;1746541;82;25581;-67
2022/10/26 05:39:31;;;;;;;24.45;13.62;;;;;;;8.56;87.10;98960.22;1745985;82;27476;-67
2022/10/26 05:41:57;;;;;;;23.67;13.43;;;;;;;8.57;87.59;98973.31;1742227;82;25660;-67
2022/10/26 05:44:23;;;;;;;23.73;13.35;;;;;;;8.58;87.56;98969.49;1746141;82;25475;-67
2022/10/26 05:46:49;;;;;;;23.22;13.50;;;;;;;8.59;87.48;98968.38;1746198;82;25671;-67
2022/10/26 05:49:16;;;;;;;19.80;12.75;;;;;;;8.60;87.57;98975.45;1746150;82;25612;-66
2022/10/26 05:51:42;;;;;;;21.45;12.65;;;;;;;8.59;86.98;98977.39;1746654;82;28218;-67
2022/10/26 05:54:08;;;;;;;22.45;12.20;;;;;;;8.52;86.91;98976.34;1746251;82;25430;-67
2022/10/26 05:56:40;;;;;;;21.50;11.50;;;;;;;8.48;87.28;98979.95;1745940;82;25676;-67
2022/10/26 05:59:15;;;;;;;22.07;12.68;;;;;;;8.52;87.54;98976.91;1746208;82;26695;-67
2022/10/26 06:02:16;;;;;;;25.95;14.47;;;;;;;8.58;87.63;98978.48;1745873;82;25590;-67
2022/10/26 06:04:48;;;;;;;30.40;17.57;;;;;;;8.63;87.75;98978.97;1745984;82;28191;-67
2022/10/26 06:07:21;;;;;;;28.00;16.27;;;;;;;8.71;87.93;98982.97;1746333;82;25598;-67
2022/10/26 06:09:48;;;;;;;33.85;22.67;;;;;;;8.79;88.28;98994.63;1745816;81;25664;-67
2022/10/26 06:12:16;;;;;;;35.25;18.85;;;;;;;8.79;87.45;98989.16;1746384;82;26560;-67
2022/10/26 06:14:44;;;;;;;28.07;15.50;;;;;;;8.77;87.53;99005.03;1746369;82;25597;-67
2022/10/26 06:17:31;;;;;;;24.25;14.65;;;;;;;8.73;87.29;99002.63;1746285;82;27480;-67
2022/10/26 06:20:41;;;;;;;22.95;14.73;;;;;;;8.73;87.25;99004.82;1746269;82;26110;-67
2022/10/26 06:23:24;;;;;;;27.75;13.62;;;;;;;8.77;87.26;99011.86;1745954;82;25426;-67
2022/10/26 06:26:15;;;;;;;21.12;13.15;;;;;;;8.79;87.38;99011.03;1741698;82;25718;-67
2022/10/26 06:29:08;;;;;;;20.32;12.65;;;;;;;8.78;87.57;99010.20;1744102;82;25463;-68
2022/10/26 06:31:35;;;;;;;30.05;15.08;;;;;;;8.84;87.68;99008.78;1743789;82;28427;-68
2022/10/26 06:34:02;;;;;;;25.62;14.60;;;;;;;8.84;88.03;99006.05;1743834;82;25715;-67
2022/10/26 06:36:30;;;;;;;86.28;36.60;;;;;;;8.85;88.26;99007.66;1720938;82;25659;-66
2022/10/26 06:39:06;;;;;;;306.82;101.30;;;;;;;8.89;88.43;99010.06;1743431;82;27828;-67
2022/10/26 06:41:35;;;;;;;209.85;70.00;;;;;;;8.90;88.81;99012.50;1744096;82;25422;-67
2022/10/26 06:44:04;;;;;;;293.40;95.60;;;;;;;8.96;89.11;99018.73;1744161;82;27434;-67
2022/10/26 06:47:00;;;;;;;22.93;10.75;;;;;;;9.11;89.42;99019.62;1743924;82;25580;-66
2022/10/26 06:49:37;;;;;;;23.05;13.75;;;;;;;9.39;91.21;99028.77;1743688;82;25694;-67
2022/10/26 06:52:15;;;;;;;19.65;9.55;;;;;;;9.78;90.97;99025.98;1744127;82;25846;-69
2022/10/26 06:54:51;;;;;;;23.38;14.20;;;;;;;10.07;90.16;99024.95;1743987;82;25211;-69
2022/10/26 06:57:22;;;;;;;24.55;14.87;;;;;;;10.34;89.60;99024.75;1741029;82;27543;-69
2022/10/26 06:59:56;;;;;;;14.35;8.70;;;;;;;10.54;89.07;99024.13;1743882;82;25677;-68
2022/10/26 07:02:23;;;;;;;21.45;10.23;;;;;;;10.74;88.60;99020.13;1744027;81;25665;-69
2022/10/26 07:04:50;;;;;;;18.77;9.83;;;;;;;10.94;88.20;99021.40;1744225;82;25674;-68
2022/10/26 07:07:29;;;;;;;33.85;24.47;;;;;;;11.11;87.80;99020.77;1744173;82;25804;-69
2022/10/26 07:09:55;;;;;;;20.10;11.90;;;;;;;11.28;87.41;99023.65;1744511;82;28390;-69
2022/10/26 07:12:22;;;;;;;20.00;12.58;;;;;;;11.52;87.11;99024.49;1743974;82;25605;-70
2022/10/26 07:14:48;;;;;;;18.35;11.12;;;;;;;11.71;86.23;99029.78;1744670;82;25645;-69
2022/10/26 07:17:27;;;;;;;18.87;9.35;;;;;;;11.93;86.00;99025.41;1725359;82;25760;-69
2022/10/26 07:19:55;;;;;;;14.45;9.30;;;;;;;12.19;85.79;99039.06;1742352;82;25600;-69
2022/10/26 07:22:30;;;;;;;13.32;8.73;;;;;;;12.48;85.08;99034.45;1743986;82;27454;-69
2022/10/26 07:25:17;;;;;;;16.90;9.68;;;;;;;12.76;84.61;99036.98;1721384;82;25710;-69
2022/10/26 07:27:43;;;;;;;14.28;9.13;;;;;;;13.09;83.57;99031.61;1704826;83;25481;-69
2022/10/26 07:30:11;;;;;;;18.70;10.40;;;;;;;13.39;81.69;99037.30;1705126;82;25842;-69
2022/10/26 07:32:38;;;;;;;18.55;9.98;;;;;;;13.58;82.39;99035.41;1703961;83;25667;-69
2022/10/26 07:35:05;;;;;;;23.73;12.63;;;;;;;13.77;81.58;99036.43;1704149;83;27632;-69
2022/10/26 07:37:32;;;;;;;21.55;10.72;;;;;;;13.89;81.46;99043.47;1704944;83;25646;-70
2022/10/26 07:39:58;;;;;;;20.32;10.23;;;;;;;14.08;80.25;99040.92;1677546;83;25739;-70
2022/10/26 07:42:25;;;;;;;15.40;9.08;;;;;;;14.20;79.52;99041.61;1674141;84;25774;-70
2022/10/26 07:44:51;;;;;;;12.28;7.25;;;;;;;14.25;77.82;99044.77;1671988;85;25705;-70
2022/10/26 07:47:17;;;;;;;9.75;6.35;;;;;;;14.34;77.12;99043.35;1672692;84;28676;-68
2022/10/26 07:49:44;;;;;;;11.73;8.05;;;;;;;14.40;76.77;99050.31;1671873;84;25695;-70
2022/10/26 07:52:10;;;;;;;14.87;8.60;;;;;;;14.58;76.76;99044.15;1671922;84;25698;-70
2022/10/26 07:54:37;;;;;;;12.98;7.17;;;;;;;14.75;76.50;99047.40;1672253;84;25833;-70
2022/10/26 07:57:03;;;;;;;11.35;6.55;;;;;;;14.98;76.88;99044.38;1671965;84;25659;-68
2022/10/26 07:59:30;;;;;;;11.18;5.78;;;;;;;15.23;75.31;99045.91;1672262;84;27495;-68
2022/10/26 08:01:56;;;;;;;9.83;4.97;;;;;;;15.50;74.84;99047.92;1671907;85;25506;-69
2022/10/26 08:04:23;;;;;;;9.85;6.12;;;;;;;15.74;74.77;99044.20;1672615;84;25694;-70
2022/10/26 08:06:49;;;;;;;9.53;6.03;;;;;;;16.03;71.76;99047.45;1673867;84;25771;-69
2022/10/26 08:09:16;;;;;;;8.50;5.15;;;;;;;16.36;72.93;99040.84;1672027;84;25619;-69
2022/10/26 08:11:42;;;;;;;11.18;5.92;;;;;;;16.81;70.57;99041.33;1672432;84;27395;-69
2022/10/26 08:14:10;;;;;;;8.05;4.53;;;;;;;17.20;69.11;99043.50;1673211;84;25520;-69
2022/10/26 08:16:39;;;;;;;16.12;6.90;;;;;;;17.60;68.80;99034.97;1679635;84;25702;-69
2022/10/26 08:19:22;;;;;;;10.35;5.17;;;;;;;17.97;68.40;99038.16;1681975;85;25811;-70
2022/10/26 08:21:52;;;;;;;9.38;4.65;;;;;;;18.44;68.90;99031.08;1681192;85;25603;-69
2022/10/26 08:24:30;;;;;;;7.20;4.42;;;;;;;19.11;62.47;99027.32;1684437;83;27469;-70
2022/10/26 08:26:56;;;;;;;7.40;3.77;;;;;;;19.11;62.47;99027.32;1706378;83;25646;-69
2022/10/26 08:29:23;;;;;;;5.10;3.40;;;;;;;19.50;63.40;99030.70;1706521;84;25484;-70
2022/10/26 08:31:49;;;;;;;4.12;3.15;;;;;;;19.80;63.75;99039.83;1706099;84;25798;-70
2022/10/26 08:34:16;;;;;;;6.58;3.37;;;;;;;19.89;59.78;99030.68;1706209;84;25665;-70
2022/10/26 08:36:42;;;;;;;6.65;3.62;;;;;;;20.17;61.63;99035.20;1706261;84;27447;-70
2022/10/26 08:39:09;;;;;;;8.05;3.40;;;;;;;20.50;61.06;99028.00;1706320;84;25592;-69
2022/10/26 08:41:45;;;;;;;7.78;4.58;;;;;;;20.80;61.32;99030.06;1706163;84;25476;-70
2022/10/26 08:44:25;;;;;;;7.20;3.37;;;;;;;21.18;61.35;99026.87;1706409;84;25669;-70
2022/10/26 08:47:17;;;;;;;7.62;3.75;;;;;;;21.71;60.07;99022.13;1700658;83;25621;-69
2022/10/26 08:50:06;;;;;;;9.70;3.92;;;;;;;22.01;58.97;99027.67;1705895;84;29564;-68
2022/10/26 08:52:49;;;;;;;7.58;3.30;;;;;;;22.34;56.93;99021.60;1705719;84;25609;-68
2022/10/26 08:55:19;;;;;;;6.03;3.37;;;;;;;22.55;54.28;99026.56;1706161;84;25784;-68
2022/10/26 08:57:48;;;;;;;5.58;3.40;;;;;;;22.76;55.43;99027.94;1706552;84;25761;-67
2022/10/26 09:00:21;;;;;;;4.33;2.95;;;;;;;22.96;55.54;99026.27;1706671;84;25472;-68
2022/10/26 09:02:52;;;;;;;7.08;3.17;;;;;;;22.94;51.94;99017.70;1706023;84;27455;-67
2022/10/26 09:05:35;;;;;;;7.03;3.30;;;;;;;22.95;54.09;99021.30;1706109;84;25472;-67
2022/10/26 09:08:35;;;;;;;6.10;4.08;;;;;;;23.45;53.23;99020.59;1705975;82;25468;-68
2022/10/26 09:11:48;;;;;;;6.28;3.62;;;;;;;23.72;50.59;99019.70;1706102;84;25753;-65
2022/10/26 09:14:20;;;;;;;8.53;3.80;;;;;;;23.67;51.86;99022.28;1702035;83;25676;-67
2022/10/26 09:17:12;;;;;;;9.18;4.55;;;;;;;24.06;49.88;99023.56;1702014;84;27362;-67
2022/10/26 09:20:07;;;;;;;6.90;3.27;;;;;;;24.07;49.47;99025.77;1702332;84;25646;-67
2022/10/26 09:23:10;;;;;;;7.25;3.95;;;;;;;24.28;49.32;99027.83;1703943;83;25465;-67
2022/10/26 09:25:41;;;;;;;5.92;3.62;;;;;;;24.53;48.69;99022.04;1714544;82;25684;-67
2022/10/26 09:28:17;;;;;;;5.12;2.90;;;;;;;25.04;49.34;99025.60;1723715;83;25479;-67
2022/10/26 09:30:45;;;;;;;5.03;2.58;;;;;;;25.53;48.20;99032.05;1723511;83;27389;-67
2022/10/26 09:33:16;;;;;;;4.30;2.37;;;;;;;25.49;47.06;99034.08;1723742;83;25701;-67
2022/10/26 09:35:53;;;;;;;6.03;2.87;;;;;;;25.19;45.60;99029.78;1723226;83;25621;-67
2022/10/26 09:38:33;;;;;;;4.20;2.30;;;;;;;24.87;45.20;99033.42;1723608;83;26484;-67
2022/10/26 09:41:20;;;;;;;;;;;;;;;24.97;45.76;99043.03;1726492;83;25670;-67
2022/10/26 09:44:01;;;;;;;5.62;3.00;;;;;;;25.40;45.89;99044.34;1723489;83;27482;-67
2022/10/26 09:47:01;;;;;;;5.97;2.75;;;;;;;25.76;43.77;99039.20;1723154;83;25583;-67
2022/10/26 09:49:47;;;;;;;6.05;3.00;;;;;;;26.09;44.10;99041.02;1714882;82;25668;-67
2022/10/26 09:52:15;;;;;;;4.30;2.33;;;;;;;26.39;44.06;99041.06;1716366;82;25467;-67
2022/10/26 09:54:41;;;;;;;3.72;2.08;;;;;;;26.73;43.90;99047.98;1712637;83;25697;-67
2022/10/26 09:57:09;;;;;;;4.42;2.20;;;;;;;27.06;41.60;99047.91;1716499;83;27474;-66
2022/10/26 09:59:38;;;;;;;3.80;2.27;;;;;;;27.12;41.84;99050.27;1716524;83;25438;-66
2022/10/26 10:02:34;;;;;;;;;;;;;;;27.20;42.29;99046.15;1719112;83;25674;-66
2022/10/26 10:05:00;;;;;;;6.30;3.02;;;;;;;27.52;41.97;99049.20;1669708;85;25846;-66
2022/10/26 10:07:27;;;;;;;5.92;2.92;;;;;;;27.56;39.70;99053.39;1670193;85;25484;-66
2022/10/26 10:10:21;;;;;;;3.72;2.50;;;;;;;27.85;41.73;99056.47;1669981;85;27424;-66
2022/10/26 10:12:51;;;;;;;4.22;2.20;;;;;;;28.02;39.56;99051.21;1670097;85;25574;-66
2022/10/26 10:15:21;;;;;;;3.75;2.12;;;;;;;27.75;38.98;99052.59;1670645;85;25712;-66
2022/10/26 10:17:52;;;;;;;4.45;2.10;;;;;;;27.32;39.54;99056.09;1647348;85;25760;-65
2022/10/26 10:20:23;;;;;;;3.75;2.60;;;;;;;27.23;40.57;99056.56;1670372;85;25477;-65
2022/10/26 10:22:56;;;;;;;5.72;3.27;;;;;;;27.03;39.14;99050.77;1669542;85;28085;-65
2022/10/26 10:25:35;;;;;;;3.67;2.67;;;;;;;27.22;41.09;99058.39;1670360;85;25920;-65
2022/10/26 10:28:05;;;;;;;2.67;1.90;;;;;;;27.12;40.37;99053.89;1670471;85;25550;-65
2022/10/26 10:30:33;;;;;;;3.50;1.95;;;;;;;26.98;39.58;99051.19;1667992;85;27258;-65
2022/10/26 10:33:12;;;;;;;3.58;2.05;;;;;;;26.80;39.41;99053.57;1670151;85;25665;-64
2022/10/26 10:35:43;;;;;;;4.83;2.08;;;;;;;26.72;40.93;99052.02;1670620;85;27800;-64
2022/10/26 10:38:20;;;;;;;3.87;2.10;;;;;;;26.68;40.56;99053.45;1668849;85;25653;-65
2022/10/26 10:40:58;;;;;;;4.47;2.15;;;;;;;26.74;40.18;99053.20;1679285;83;25725;-64
2022/10/26 10:43:25;;;;;;;3.50;1.92;;;;;;;26.31;39.59;99047.34;1717127;83;25816;-65
2022/10/26 10:45:55;;;;;;;3.85;2.15;;;;;;;26.16;40.16;99050.20;1721093;82;25677;-65
2022/10/26 10:48:26;;;;;;;3.12;2.00;;;;;;;26.31;41.32;99050.92;1727114;83;27442;-64
2022/10/26 10:51:03;;;;;;;4.00;2.02;;;;;;;26.61;41.32;99052.92;1726008;83;25616;-63
2022/10/26 10:53:48;;;;;;;7.95;4.83;;;;;;;27.03;40.38;99050.77;1726809;83;25481;-63
2022/10/26 10:56:43;;;;;;;44.10;28.73;;;;;;;27.15;40.35;99054.47;1726429;83;26065;-65
2022/10/26 10:59:40;;;;;;;21.15;17.42;;;;;;;27.33;39.12;99043.61;1727080;83;25656;-64
2022/10/26 11:02:46;;;;;;;80.20;71.87;;;;;;;27.13;39.21;99042.02;1726518;83;27394;-64
2022/10/26 11:05:36;;;;;;;114.12;65.17;;;;;;;27.53;39.78;99044.38;1726731;83;25597;-65
2022/10/26 11:08:22;;;;;;;96.47;34.18;;;;;;;27.96;38.57;99046.47;1726644;83;25485;-65
2022/10/26 11:11:10;;;;;;;54.77;19.77;;;;;;;28.28;37.15;99046.00;1726836;83;25703;-65
2022/10/26 11:13:42;;;;;;;21.90;8.50;;;;;;;28.21;37.67;99043.30;1726630;83;25489;-64
2022/10/26 11:16:20;;;;;;;24.65;9.88;;;;;;;27.87;37.79;99046.39;1726784;83;28202;-65
2022/10/26 11:18:57;;;;;;;4.72;2.42;;;;;;;27.90;37.51;99048.37;1722480;83;25977;-64
2022/10/26 11:21:35;;;;;;;2.37;1.50;;;;;;;27.80;36.82;99047.28;1726916;83;25499;-65
2022/10/26 11:24:13;;;;;;;5.58;2.08;;;;;;;27.62;37.34;99044.67;1726926;83;26686;-64
2022/10/26 11:26:54;;;;;;;6.72;3.15;;;;;;;27.36;37.46;99041.36;1710647;83;25659;-64
2022/10/26 11:29:43;;;;;;;28.00;12.47;;;;;;;27.12;38.34;99045.45;1703319;84;28367;-64
2022/10/26 11:32:18;;;;;;;16.87;7.60;;;;;;;27.71;37.73;99053.25;1702096;84;25666;-64
2022/10/26 11:34:58;;;;;;;40.73;17.77;;;;;;;28.37;37.11;99050.31;1696369;84;25501;-63
2022/10/26 11:37:53;;;;;;;53.60;24.05;;;;;;;28.81;36.45;99047.57;1703914;84;25817;-62
2022/10/26 11:40:31;;;;;;;23.20;10.25;;;;;;;29.27;35.54;99042.33;1701598;84;25702;-62
2022/10/26 11:43:14;;;;;;;22.02;10.82;;;;;;;29.60;34.67;99044.53;1723870;82;27470;-64
2022/10/26 11:45:45;;;;;;;16.23;7.08;;;;;;;29.84;35.38;99044.42;1710776;83;25780;-63
2022/10/26 11:48:27;;;;;;;9.75;4.65;;;;;;;30.13;35.13;99043.77;1710669;83;25713;-64
2022/10/26 11:50:57;;;;;;;18.35;9.93;;;;;;;30.23;32.62;99042.58;1710197;83;25806;-65
2022/10/26 11:53:31;;;;;;;11.48;5.97;;;;;;;30.18;33.55;99046.72;1711005;83;25794;-64
2022/10/26 11:55:59;;;;;;;6.92;3.60;;;;;;;29.82;33.71;99042.66;1710674;83;26667;-64